createdAt,value
2022-07-26T00:00:08.980Z,24.00
2022-07-26T00:02:37.810Z,24.00
2022-07-26T00:05:07.217Z,23.90
2022-07-26T00:07:37.183Z,23.90
2022-07-26T00:10:07.284Z,23.90
2022-07-26T00:12:35.618Z,23.90
2022-07-26T00:15:04.597Z,23.90
2022-07-26T00:17:32.909Z,23.90
2022-07-26T00:20:01.294Z,23.90
2022-07-26T00:22:35.594Z,23.90
2022-07-26T00:25:07.460Z,23.50
2022-07-26T00:27:37.623Z,23.80
2022-07-26T00:30:07.193Z,23.80
2022-07-26T00:32:35.754Z,23.80
2022-07-26T00:35:05.062Z,23.80
2022-07-26T00:37:33.573Z,23.80
2022-07-26T00:40:01.832Z,23.70
2022-07-26T00:42:31.492Z,23.80
2022-07-26T00:44:59.823Z,23.70
2022-07-26T00:47:28.129Z,23.70
2022-07-26T00:49:56.455Z,23.70
2022-07-26T00:52:25.229Z,23.70
2022-07-26T00:54:54.608Z,23.70
2022-07-26T00:57:23.455Z,23.70
2022-07-26T00:59:53.111Z,23.60
2022-07-26T01:02:22.205Z,23.60
2022-07-26T01:04:50.422Z,23.60
2022-07-26T01:07:18.865Z,23.60
2022-07-26T01:09:47.282Z,23.60
2022-07-26T01:12:15.578Z,23.60
2022-07-26T01:14:44.831Z,23.60
2022-07-26T01:17:15.301Z,23.60
2022-07-26T01:19:43.946Z,23.60
2022-07-26T01:22:14.831Z,23.50
2022-07-26T01:24:43.501Z,23.50
2022-07-26T01:27:11.815Z,23.50
2022-07-26T01:29:40.089Z,23.50
2022-07-26T01:32:09.705Z,23.50
2022-07-26T01:34:38.167Z,23.40
2022-07-26T01:37:07.012Z,23.40
2022-07-26T01:39:36.644Z,23.30
2022-07-26T01:42:05.262Z,23.30
2022-07-26T01:44:33.545Z,23.30
2022-07-26T01:47:01.784Z,23.30
2022-07-26T01:49:30.037Z,23.30
2022-07-26T01:51:58.382Z,23.30
2022-07-26T01:54:26.660Z,23.30
2022-07-26T01:56:56.333Z,23.30
2022-07-26T01:59:24.579Z,23.30
2022-07-26T02:01:52.990Z,23.30
2022-07-26T02:04:38.978Z,23.30
2022-07-26T02:07:07.265Z,23.30
2022-07-26T02:09:41.716Z,23.20
2022-07-26T02:12:11.730Z,23.30
2022-07-26T02:14:40.155Z,23.30
2022-07-26T02:17:08.529Z,23.20
2022-07-26T02:19:36.816Z,23.30
2022-07-26T02:22:05.886Z,23.20
2022-07-26T02:24:34.773Z,23.20
2022-07-26T02:27:04.617Z,23.30
2022-07-26T02:29:34.388Z,23.20
2022-07-26T02:32:02.778Z,23.20
2022-07-26T02:34:33.878Z,23.20
2022-07-26T02:37:02.827Z,23.20
2022-07-26T02:39:31.655Z,23.20
2022-07-26T02:42:02.023Z,23.10
2022-07-26T02:44:30.835Z,23.10
2022-07-26T02:47:00.610Z,23.10
2022-07-26T02:49:28.945Z,23.10
2022-07-26T02:51:57.234Z,23.10
2022-07-26T02:54:25.472Z,23.00
2022-07-26T02:56:53.775Z,23.00
2022-07-26T02:59:22.022Z,23.00
2022-07-26T03:01:50.363Z,23.00
2022-07-26T03:04:20.170Z,23.00
2022-07-26T03:06:48.421Z,23.00
2022-07-26T03:09:16.907Z,22.90
2022-07-26T03:11:45.129Z,22.90
2022-07-26T03:14:13.451Z,22.90
2022-07-26T03:16:41.796Z,22.90
2022-07-26T03:19:10.084Z,22.90
2022-07-26T03:21:39.744Z,22.90
2022-07-26T03:24:08.798Z,22.90
2022-07-26T03:26:37.362Z,22.90
2022-07-26T03:29:05.719Z,22.80
2022-07-26T03:31:34.865Z,22.80
2022-07-26T03:34:03.672Z,22.80
2022-07-26T03:36:32.014Z,22.80
2022-07-26T03:39:01.666Z,22.80
2022-07-26T03:41:31.658Z,22.70
2022-07-26T03:43:59.977Z,22.70
2022-07-26T03:46:28.303Z,22.70
2022-07-26T03:48:56.936Z,22.70
2022-07-26T03:51:25.249Z,22.70
2022-07-26T03:53:53.569Z,22.70
2022-07-26T03:56:34.232Z,22.70
2022-07-26T03:59:05.442Z,22.70
2022-07-26T04:01:35.014Z,22.60
2022-07-26T04:04:03.777Z,22.60
2022-07-26T04:06:32.162Z,22.60
2022-07-26T04:09:00.425Z,22.60
2022-07-26T04:11:30.208Z,22.60
2022-07-26T04:13:58.827Z,22.50
2022-07-26T04:16:27.474Z,22.50
2022-07-26T04:18:56.141Z,22.50
2022-07-26T04:21:24.847Z,22.50
2022-07-26T04:23:53.222Z,22.50
2022-07-26T04:26:22.160Z,22.50
2022-07-26T04:28:51.968Z,22.50
2022-07-26T04:31:20.473Z,22.40
2022-07-26T04:33:48.886Z,22.40
2022-07-26T04:36:17.163Z,22.50
2022-07-26T04:38:45.495Z,22.10
2022-07-26T04:41:14.006Z,22.40
2022-07-26T04:43:42.328Z,22.40
2022-07-26T04:46:12.055Z,22.40
2022-07-26T04:48:40.347Z,22.40
2022-07-26T04:51:08.740Z,22.40
2022-07-26T04:53:37.014Z,22.50
2022-07-26T04:56:05.997Z,22.40
2022-07-26T04:58:34.268Z,22.40
2022-07-26T05:01:10.080Z,22.40
2022-07-26T05:03:40.650Z,22.40
2022-07-26T05:06:09.168Z,22.40
2022-07-26T05:08:37.530Z,22.40
2022-07-26T05:11:05.843Z,22.30
2022-07-26T05:13:34.065Z,22.30
2022-07-26T05:16:02.469Z,22.30
2022-07-26T05:18:45.807Z,22.30
2022-07-26T05:21:19.756Z,22.30
2022-07-26T05:23:48.055Z,22.30
2022-07-26T05:26:16.359Z,22.30
2022-07-26T05:28:44.695Z,22.30
2022-07-26T05:31:13.045Z,22.30
2022-07-26T05:33:41.322Z,22.30
2022-07-26T05:36:10.366Z,22.30
2022-07-26T05:38:40.200Z,22.30
2022-07-26T05:41:08.604Z,22.40
2022-07-26T05:43:40.669Z,22.40
2022-07-26T05:46:11.650Z,22.40
2022-07-26T05:48:40.418Z,22.30
2022-07-26T05:51:08.992Z,22.40
2022-07-26T05:53:37.446Z,22.40
2022-07-26T05:56:07.947Z,22.40
2022-07-26T05:58:36.367Z,22.30
2022-07-26T06:01:04.740Z,22.30
2022-07-26T06:03:33.116Z,22.30
2022-07-26T06:06:01.410Z,22.30
2022-07-26T06:08:29.863Z,22.30
2022-07-26T06:10:58.542Z,22.40
2022-07-26T06:13:28.206Z,22.30
2022-07-26T06:15:56.549Z,22.30
2022-07-26T06:18:24.782Z,22.30
2022-07-26T06:20:53.068Z,22.40
2022-07-26T06:23:34.046Z,22.30
2022-07-26T06:26:04.353Z,22.30
2022-07-26T06:28:34.392Z,22.40
2022-07-26T06:31:02.722Z,22.40
2022-07-26T06:33:31.053Z,22.40
2022-07-26T06:35:59.427Z,22.40
2022-07-26T06:38:27.822Z,22.40
2022-07-26T06:40:56.194Z,22.30
2022-07-26T06:43:24.372Z,22.30
2022-07-26T06:45:54.143Z,22.40
2022-07-26T06:48:22.522Z,22.40
2022-07-26T06:50:51.609Z,22.30
2022-07-26T06:53:19.864Z,22.40
2022-07-26T06:55:48.177Z,22.40
2022-07-26T06:58:16.391Z,22.40
2022-07-26T07:00:45.218Z,22.40
2022-07-26T07:03:14.877Z,22.40
2022-07-26T07:05:47.914Z,22.40
2022-07-26T07:08:18.253Z,22.40
2022-07-26T07:10:46.469Z,22.40
2022-07-26T07:13:14.768Z,22.40
2022-07-26T07:15:43.063Z,22.40
2022-07-26T07:18:11.908Z,22.40
2022-07-26T07:20:42.266Z,22.40
2022-07-26T07:23:10.528Z,22.40
2022-07-26T07:25:38.832Z,22.40
2022-07-26T07:28:08.507Z,22.40
2022-07-26T07:30:36.863Z,22.40
2022-07-26T07:33:07.447Z,22.40
2022-07-26T07:35:35.816Z,22.40
2022-07-26T07:38:05.767Z,22.40
2022-07-26T07:40:34.302Z,22.10
2022-07-26T07:43:02.982Z,22.40
2022-07-26T07:45:31.329Z,22.50
2022-07-26T07:47:59.585Z,22.40
2022-07-26T07:50:28.430Z,22.50
2022-07-26T07:52:59.183Z,22.50
2022-07-26T07:55:46.775Z,22.50
2022-07-26T07:58:17.585Z,22.50
2022-07-26T08:00:48.304Z,22.50
2022-07-26T08:03:17.824Z,22.50
2022-07-26T08:05:47.199Z,22.50
2022-07-26T08:08:18.926Z,22.50
2022-07-26T08:10:53.488Z,22.60
2022-07-26T08:13:23.052Z,22.60
2022-07-26T08:15:52.850Z,22.70
2022-07-26T08:18:22.525Z,22.70
2022-07-26T08:20:52.489Z,22.70
2022-07-26T08:23:21.381Z,22.70
2022-07-26T08:26:00.837Z,22.70
2022-07-26T08:28:47.032Z,22.70
2022-07-26T08:31:17.144Z,22.70
2022-07-26T08:33:46.348Z,22.80
2022-07-26T08:36:15.985Z,22.80
2022-07-26T08:38:44.571Z,22.80
2022-07-26T08:41:17.978Z,22.80
2022-07-26T08:43:52.675Z,22.90
2022-07-26T08:46:28.236Z,22.90
2022-07-26T08:48:57.298Z,22.90
2022-07-26T08:51:26.481Z,22.90
2022-07-26T08:54:04.128Z,22.90
2022-07-26T08:56:36.116Z,22.90
2022-07-26T08:59:06.857Z,22.90
2022-07-26T09:01:35.570Z,22.90
2022-07-26T09:04:31.180Z,22.90
2022-07-26T09:07:04.729Z,23.00
2022-07-26T09:09:33.820Z,23.00
2022-07-26T09:12:15.966Z,23.00
2022-07-26T09:14:46.695Z,23.00
2022-07-26T09:17:16.249Z,23.00
2022-07-26T09:19:44.832Z,23.00
2022-07-26T09:22:14.412Z,23.00
2022-07-26T09:24:44.385Z,23.10
2022-07-26T09:27:15.447Z,23.10
2022-07-26T09:29:48.566Z,23.10
2022-07-26T09:32:19.445Z,23.10
2022-07-26T09:34:53.101Z,23.10
2022-07-26T09:37:34.913Z,23.10
2022-07-26T09:40:06.314Z,23.10
2022-07-26T09:42:36.280Z,23.10
2022-07-26T09:45:15.729Z,23.10
2022-07-26T09:47:44.126Z,23.10
2022-07-26T09:50:14.401Z,23.10
2022-07-26T09:52:57.858Z,23.10
2022-07-26T09:55:26.382Z,23.10
2022-07-26T09:57:56.327Z,23.10
2022-07-26T10:00:25.859Z,23.10
2022-07-26T10:02:54.519Z,23.10
2022-07-26T10:05:22.963Z,23.10
2022-07-26T10:07:52.665Z,23.10
2022-07-26T10:10:26.171Z,23.10
2022-07-26T10:12:56.216Z,23.10
2022-07-26T10:15:38.779Z,23.10
2022-07-26T10:18:09.366Z,23.10
2022-07-26T10:20:48.406Z,23.10
2022-07-26T10:23:50.565Z,23.10
2022-07-26T10:26:40.634Z,23.20
2022-07-26T10:29:30.732Z,23.20
2022-07-26T10:32:20.419Z,23.20
2022-07-26T10:34:49.327Z,23.20
2022-07-26T10:37:35.482Z,23.10
2022-07-26T10:40:22.616Z,23.00
2022-07-26T10:42:51.010Z,22.90
2022-07-26T10:45:24.020Z,22.80
2022-07-26T10:48:13.421Z,22.60
2022-07-26T10:50:43.329Z,22.50
2022-07-26T10:53:17.937Z,22.40
2022-07-26T10:55:48.512Z,22.40
2022-07-26T10:58:17.077Z,22.40
2022-07-26T11:00:58.607Z,22.30
2022-07-26T11:03:27.247Z,22.30
2022-07-26T11:05:55.638Z,22.30
2022-07-26T11:08:31.437Z,22.30
2022-07-26T11:10:59.786Z,22.20
2022-07-26T11:13:28.935Z,22.30
2022-07-26T11:16:03.735Z,22.30
2022-07-26T11:18:35.324Z,22.30
2022-07-26T11:21:11.364Z,22.30
2022-07-26T11:23:41.020Z,22.30
2022-07-26T11:26:18.066Z,22.40
2022-07-26T11:28:55.350Z,22.40
2022-07-26T11:31:49.278Z,22.50
2022-07-26T11:34:19.387Z,22.50
2022-07-26T11:36:48.675Z,22.50
2022-07-26T11:39:21.805Z,22.60
2022-07-26T11:41:50.833Z,22.60
2022-07-26T11:44:20.704Z,22.60
2022-07-26T11:46:51.460Z,22.70
2022-07-26T11:49:22.850Z,22.70
2022-07-26T11:51:53.118Z,22.80
2022-07-26T11:54:22.125Z,22.80
2022-07-26T11:56:55.980Z,22.80
2022-07-26T11:59:25.509Z,22.80
2022-07-26T12:01:55.704Z,22.90
2022-07-26T12:04:25.951Z,22.90
2022-07-26T12:06:55.203Z,22.90
2022-07-26T12:09:32.179Z,22.90
2022-07-26T12:12:01.022Z,23.00
2022-07-26T12:14:29.855Z,23.00
2022-07-26T12:17:00.009Z,23.00
2022-07-26T12:19:30.579Z,23.10
2022-07-26T12:22:08.479Z,23.10
2022-07-26T12:24:45.994Z,23.10
2022-07-26T12:27:16.987Z,23.10
2022-07-26T12:29:46.659Z,23.10
2022-07-26T12:32:18.291Z,23.10
2022-07-26T12:34:58.436Z,23.10
2022-07-26T12:37:37.673Z,23.10
2022-07-26T12:40:11.066Z,23.10
2022-07-26T12:42:40.539Z,23.10
2022-07-26T12:45:10.736Z,23.10
2022-07-26T12:47:42.019Z,23.00
2022-07-26T12:50:12.641Z,23.10
2022-07-26T12:52:41.316Z,23.10
2022-07-26T12:55:13.981Z,23.20
2022-07-26T12:57:47.188Z,23.20
2022-07-26T13:00:18.482Z,23.20
2022-07-26T13:02:48.819Z,23.30
2022-07-26T13:05:17.504Z,23.40
2022-07-26T13:07:45.862Z,23.40
2022-07-26T13:10:32.434Z,23.40
2022-07-26T13:13:01.235Z,23.50
2022-07-26T13:15:36.049Z,23.50
2022-07-26T13:18:07.372Z,23.40
2022-07-26T13:20:37.119Z,23.40
2022-07-26T13:23:05.396Z,23.40
2022-07-26T13:25:40.018Z,23.40
2022-07-26T13:28:09.531Z,23.30
2022-07-26T13:30:39.228Z,23.30
2022-07-26T13:33:09.035Z,23.30
2022-07-26T13:35:39.284Z,23.30
2022-07-26T13:38:09.539Z,23.30
2022-07-26T13:40:38.263Z,23.30
2022-07-26T13:43:06.945Z,23.20
2022-07-26T13:45:35.246Z,23.20
2022-07-26T13:48:03.669Z,23.10
2022-07-26T13:50:33.417Z,23.10
2022-07-26T13:53:01.676Z,23.00
2022-07-26T13:55:30.027Z,23.00
2022-07-26T13:57:58.565Z,22.90
2022-07-26T14:00:28.731Z,22.90
2022-07-26T14:02:59.470Z,23.00
2022-07-26T14:05:28.949Z,22.90
2022-07-26T14:07:58.594Z,23.00
2022-07-26T14:10:27.480Z,23.00
2022-07-26T14:12:55.791Z,22.90
2022-07-26T14:15:24.112Z,22.90
2022-07-26T14:17:52.774Z,22.90
2022-07-26T14:20:21.479Z,22.80
2022-07-26T14:22:53.353Z,22.90
2022-07-26T14:25:24.575Z,22.90
2022-07-26T14:27:54.114Z,22.90
2022-07-26T14:30:22.712Z,22.90
2022-07-26T14:32:51.044Z,23.00
2022-07-26T14:35:19.294Z,23.10
2022-07-26T14:37:47.805Z,23.10
2022-07-26T14:40:17.709Z,23.20
2022-07-26T14:42:47.661Z,23.20
2022-07-26T14:45:16.349Z,23.30
2022-07-26T14:47:45.196Z,23.30
2022-07-26T14:50:15.513Z,23.40
2022-07-26T14:52:46.088Z,23.40
2022-07-26T14:55:15.711Z,23.40
2022-07-26T14:57:44.495Z,23.50
2022-07-26T15:00:16.714Z,23.50
2022-07-26T15:02:48.549Z,23.50
2022-07-26T15:05:17.915Z,23.50
2022-07-26T15:07:47.968Z,23.60
2022-07-26T15:10:16.695Z,23.60
2022-07-26T15:12:45.205Z,23.70
2022-07-26T15:15:14.861Z,23.80
2022-07-26T15:17:43.456Z,23.60
2022-07-26T15:20:11.911Z,24.00
2022-07-26T15:22:40.768Z,24.00
2022-07-26T15:25:09.736Z,23.90
2022-07-26T15:27:38.182Z,23.90
2022-07-26T15:30:11.539Z,23.90
2022-07-26T15:32:43.984Z,23.80
2022-07-26T15:35:14.098Z,23.70
2022-07-26T15:37:44.581Z,23.70
2022-07-26T15:40:13.839Z,23.70
2022-07-26T15:42:44.302Z,23.70
2022-07-26T15:45:14.103Z,23.70
2022-07-26T15:47:54.258Z,23.70
2022-07-26T15:50:26.579Z,23.70
2022-07-26T15:52:54.992Z,23.70
2022-07-26T15:55:23.288Z,23.60
2022-07-26T15:57:51.676Z,23.60
2022-07-26T16:00:20.204Z,23.50
2022-07-26T16:02:49.917Z,23.40
2022-07-26T16:05:18.454Z,23.30
2022-07-26T16:07:47.842Z,23.30
2022-07-26T16:10:17.348Z,23.20
2022-07-26T16:12:45.691Z,23.10
2022-07-26T16:15:14.314Z,23.10
2022-07-26T16:17:42.620Z,23.10
2022-07-26T16:20:12.654Z,23.10
2022-07-26T16:22:41.838Z,23.20
2022-07-26T16:25:13.610Z,23.20
2022-07-26T16:27:43.322Z,23.10
2022-07-26T16:30:13.061Z,23.10
2022-07-26T16:32:41.770Z,23.20
2022-07-26T16:35:11.925Z,23.20
2022-07-26T16:37:41.428Z,23.20
2022-07-26T16:40:11.160Z,23.20
2022-07-26T16:42:39.473Z,23.20
2022-07-26T16:45:09.831Z,23.20
2022-07-26T16:47:38.268Z,23.20
2022-07-26T16:50:07.880Z,23.10
2022-07-26T16:52:37.699Z,23.20
2022-07-26T16:55:10.721Z,23.20
2022-07-26T16:57:39.897Z,23.20
2022-07-26T17:00:11.488Z,23.10
2022-07-26T17:02:40.386Z,23.10
2022-07-26T17:05:09.937Z,23.10
2022-07-26T17:07:39.572Z,23.10
2022-07-26T17:10:10.681Z,23.10
2022-07-26T17:12:39.344Z,23.00
2022-07-26T17:15:09.823Z,23.00
2022-07-26T17:17:38.179Z,22.90
2022-07-26T17:20:07.880Z,22.90
2022-07-26T17:22:36.286Z,22.90
2022-07-26T17:25:08.888Z,22.80
2022-07-26T17:27:37.291Z,22.70
2022-07-26T17:30:07.482Z,22.70
2022-07-26T17:32:36.809Z,22.60
2022-07-26T17:35:06.068Z,22.50
2022-07-26T17:37:35.689Z,22.50
2022-07-26T17:40:08.117Z,22.50
2022-07-26T17:42:36.882Z,22.50
2022-07-26T17:45:06.885Z,22.50
2022-07-26T17:47:35.263Z,22.50
2022-07-26T17:52:54.392Z,22.40
2022-07-26T17:55:24.064Z,22.30
2022-07-26T17:57:52.898Z,22.20
2022-07-26T18:00:23.272Z,22.20
2022-07-26T18:02:55.389Z,22.20
2022-07-26T18:05:28.635Z,22.30
2022-07-26T18:07:58.643Z,22.20
2022-07-26T18:10:28.639Z,22.20
2022-07-26T18:12:57.026Z,22.20
2022-07-26T18:15:25.448Z,22.10
2022-07-26T18:17:53.981Z,22.10
2022-07-26T18:20:24.464Z,22.10
2022-07-26T18:22:53.727Z,22.10
2022-07-26T18:25:22.207Z,22.10
2022-07-26T18:27:53.835Z,22.10
2022-07-26T18:30:22.312Z,22.10
2022-07-26T18:32:50.627Z,22.10
2022-07-26T18:35:18.920Z,22.10
2022-07-26T18:37:47.634Z,22.00
2022-07-26T18:40:15.966Z,22.00
2022-07-26T18:42:44.343Z,22.10
2022-07-26T18:45:14.117Z,22.00
2022-07-26T18:47:42.585Z,22.10
2022-07-26T18:50:11.924Z,22.10
2022-07-26T18:52:43.758Z,22.10
2022-07-26T18:55:13.177Z,22.10
2022-07-26T18:57:42.815Z,22.10
2022-07-26T19:00:15.751Z,22.10
2022-07-26T19:02:44.991Z,22.00
2022-07-26T19:05:13.741Z,22.00
2022-07-26T19:07:42.832Z,22.00
2022-07-26T19:10:11.670Z,21.90
2022-07-26T19:12:40.666Z,21.90
2022-07-26T19:15:09.530Z,21.90
2022-07-26T19:17:39.307Z,21.90
2022-07-26T19:20:09.126Z,22.00
2022-07-26T19:22:38.428Z,21.90
2022-07-26T19:25:10.523Z,21.90
2022-07-26T19:27:39.516Z,21.90
2022-07-26T19:30:09.919Z,21.90
2022-07-26T19:32:40.325Z,21.90
2022-07-26T19:35:10.425Z,21.90
2022-07-26T19:37:41.522Z,21.90
2022-07-26T19:40:10.948Z,21.90
2022-07-26T19:42:39.290Z,21.90
2022-07-26T19:45:08.409Z,21.90
2022-07-26T19:47:37.486Z,21.90
2022-07-26T19:50:13.262Z,21.90
2022-07-26T19:52:42.076Z,21.80
2022-07-26T19:55:11.179Z,21.70
2022-07-26T19:57:40.220Z,21.70
2022-07-26T20:00:10.389Z,21.70
2022-07-26T20:02:41.709Z,21.70
2022-07-26T20:05:13.247Z,21.70
2022-07-26T20:07:41.716Z,21.70
2022-07-26T20:10:10.643Z,21.80
2022-07-26T20:12:38.984Z,21.80
2022-07-26T20:15:08.696Z,21.70
2022-07-26T20:17:39.169Z,21.70
2022-07-26T20:20:09.179Z,21.60
2022-07-26T20:22:38.831Z,21.60
2022-07-26T20:25:08.279Z,21.60
2022-07-26T20:27:36.551Z,21.60
2022-07-26T20:30:07.502Z,21.60
2022-07-26T20:32:36.259Z,21.50
2022-07-26T20:35:05.427Z,21.50
2022-07-26T20:37:33.693Z,21.50
2022-07-26T20:40:03.405Z,21.50
2022-07-26T20:42:31.789Z,21.40
2022-07-26T20:45:01.058Z,21.40
2022-07-26T20:47:29.328Z,21.40
2022-07-26T20:50:02.981Z,21.40
2022-07-26T20:52:31.809Z,21.40
2022-07-26T20:55:00.396Z,21.30
2022-07-26T20:57:30.193Z,21.30
2022-07-26T20:59:58.527Z,21.30
2022-07-26T21:02:28.687Z,21.30
2022-07-26T21:04:58.748Z,21.30
2022-07-26T21:07:58.394Z,21.30
2022-07-26T21:10:15.698Z,21.20
2022-07-26T21:12:45.365Z,21.20
2022-07-26T21:15:13.744Z,21.30
2022-07-26T21:17:42.093Z,21.30
2022-07-26T21:20:10.972Z,21.30
2022-07-26T21:22:39.307Z,21.30
2022-07-26T21:25:08.598Z,21.30
2022-07-26T21:27:36.966Z,21.30
2022-07-26T21:30:08.397Z,21.30
2022-07-26T21:32:36.692Z,21.30
2022-07-26T21:35:05.532Z,21.40
2022-07-26T21:37:33.909Z,21.30
2022-07-26T21:40:02.098Z,21.30
2022-07-26T21:42:30.585Z,21.30
2022-07-26T21:44:58.818Z,21.30
2022-07-26T21:47:28.523Z,21.30
2022-07-26T21:49:56.754Z,21.30
2022-07-26T21:52:25.097Z,21.20
2022-07-26T21:54:53.371Z,21.30
2022-07-26T21:57:21.634Z,21.30
2022-07-26T21:59:50.014Z,21.30
2022-07-26T22:02:18.358Z,21.30
2022-07-26T22:04:50.229Z,21.30
2022-07-26T22:07:18.508Z,21.30
2022-07-26T22:09:46.822Z,21.30
2022-07-26T22:12:15.154Z,21.30
2022-07-26T22:14:43.419Z,21.30
2022-07-26T22:17:11.750Z,21.30
2022-07-26T22:19:40.017Z,21.30
2022-07-26T22:22:09.657Z,21.30
2022-07-26T22:24:37.955Z,21.20
2022-07-26T22:27:06.263Z,21.20
2022-07-26T22:29:39.743Z,21.20
2022-07-26T22:32:08.713Z,21.20
2022-07-26T22:34:37.088Z,21.20
2022-07-26T22:37:05.369Z,21.20
2022-07-26T22:39:35.154Z,21.20
2022-07-26T22:42:15.305Z,21.20
2022-07-26T22:44:44.185Z,21.20
2022-07-26T22:47:12.749Z,21.10
2022-07-26T22:49:41.009Z,21.20
2022-07-26T22:52:09.356Z,21.10
2022-07-26T22:54:39.027Z,21.10
2022-07-26T22:57:07.382Z,21.10
2022-07-26T22:59:36.954Z,21.10
2022-07-26T23:02:05.411Z,21.10
2022-07-26T23:04:33.715Z,21.10
2022-07-26T23:07:02.629Z,21.10
2022-07-26T23:09:32.974Z,21.10
2022-07-26T23:12:02.609Z,21.10
2022-07-26T23:14:30.918Z,21.10
2022-07-26T23:16:59.385Z,21.10
2022-07-26T23:19:27.749Z,21.00
2022-07-26T23:21:55.962Z,21.10
2022-07-26T23:24:24.189Z,21.00
2022-07-26T23:26:52.430Z,21.00
2022-07-26T23:29:22.089Z,21.00
2022-07-26T23:31:50.516Z,21.00
2022-07-26T23:34:19.212Z,21.00
2022-07-26T23:36:47.392Z,21.00
2022-07-26T23:39:15.792Z,21.00
2022-07-26T23:41:44.062Z,21.00
2022-07-26T23:44:12.315Z,21.00
2022-07-26T23:46:42.063Z,21.00
2022-07-26T23:49:10.879Z,20.90
2022-07-26T23:51:39.901Z,20.90
2022-07-26T23:54:08.148Z,20.90
2022-07-26T23:56:36.414Z,20.90
2022-07-26T23:59:04.834Z,20.80
